M04 weather

Covington Municipal Airport
Covington, Tennessee, United States

Public forecast

Using degrees Fahrenheit for public forecast. Weather courtesy of forecast.io.

METAR (pilot weather report)

Closest report is Millington-Memphis Airport, 19.4 nm (36.0 km) SW. Retrieved 2019/05/22 13:50 UTC (15 minutes ago):

KNQA 221350Z 02004KT 6SM BR OVC015 19/18 A2993

TAF (pilot weather forecast)

Closest forecast is McKellar-Sipes Regional Airport, 32.8 nm (60.8 km) E. Retrieved 2019/05/22 12:22 UTC (2 hours ago):

TAF KMKL 221120Z 2212/2312 19006KT P6SM BKN250 FM221300 19012G18KT P6SM BKN060 BKN250 FM221800 20012G18KT P6SM OVC050 FM230100 18007KT P6SM FEW250